sensor_id;sensor_type;location;lat;lon;timestamp;P1;durP1;ratioP1;P2;durP2;ratioP2
68976;SDS011;56029;52.568;13.588;2022-09-14T00:01:38;7.28;;;2.60;;
68976;SDS011;56029;52.568;13.588;2022-09-14T00:04:06;10.10;;;3.40;;
68976;SDS011;56029;52.568;13.588;2022-09-14T00:06:37;10.13;;;3.03;;
68976;SDS011;56029;52.568;13.588;2022-09-14T00:09:04;10.40;;;2.80;;
68976;SDS011;56029;52.568;13.588;2022-09-14T00:11:31;7.93;;;2.65;;
68976;SDS011;56029;52.568;13.588;2022-09-14T00:14:01;9.70;;;2.72;;
68976;SDS011;56029;52.568;13.588;2022-09-14T00:16:33;7.20;;;2.33;;
68976;SDS011;56029;52.568;13.588;2022-09-14T00:19:04;7.18;;;2.08;;
68976;SDS011;56029;52.568;13.588;2022-09-14T00:21:39;6.93;;;2.70;;
68976;SDS011;56029;52.568;13.588;2022-09-14T00:24:06;7.70;;;2.70;;
68976;SDS011;56029;52.568;13.588;2022-09-14T00:26:33;6.20;;;2.40;;
68976;SDS011;56029;52.568;13.588;2022-09-14T00:29:00;6.47;;;2.17;;
68976;SDS011;56029;52.568;13.588;2022-09-14T00:31:29;8.38;;;2.75;;
68976;SDS011;56029;52.568;13.588;2022-09-14T00:33:59;5.80;;;2.22;;
68976;SDS011;56029;52.568;13.588;2022-09-14T00:36:27;7.38;;;2.58;;
68976;SDS011;56029;52.568;13.588;2022-09-14T00:38:54;8.57;;;2.58;;
68976;SDS011;56029;52.568;13.588;2022-09-14T00:41:27;5.93;;;2.47;;
68976;SDS011;56029;52.568;13.588;2022-09-14T00:44:03;10.73;;;2.60;;
68976;SDS011;56029;52.568;13.588;2022-09-14T00:46:36;6.78;;;2.10;;
68976;SDS011;56029;52.568;13.588;2022-09-14T00:49:04;6.32;;;2.20;;
68976;SDS011;56029;52.568;13.588;2022-09-14T00:51:32;6.90;;;2.42;;
68976;SDS011;56029;52.568;13.588;2022-09-14T00:54:01;5.77;;;2.27;;
68976;SDS011;56029;52.568;13.588;2022-09-14T00:56:28;6.78;;;2.38;;
68976;SDS011;56029;52.568;13.588;2022-09-14T00:58:55;6.40;;;2.10;;
68976;SDS011;56029;52.568;13.588;2022-09-14T01:01:23;6.82;;;2.50;;
68976;SDS011;56029;52.568;13.588;2022-09-14T01:03:50;5.32;;;2.20;;
68976;SDS011;56029;52.568;13.588;2022-09-14T01:06:22;5.50;;;2.57;;
68976;SDS011;56029;52.568;13.588;2022-09-14T01:14:58;6.75;;;2.33;;
68976;SDS011;56029;52.568;13.588;2022-09-14T01:20:39;6.80;;;2.30;;
68976;SDS011;56029;52.568;13.588;2022-09-14T01:23:16;6.82;;;2.60;;
68976;SDS011;56029;52.568;13.588;2022-09-14T01:28:34;8.50;;;2.70;;
68976;SDS011;56029;52.568;13.588;2022-09-14T01:31:16;9.30;;;2.58;;
68976;SDS011;56029;52.568;13.588;2022-09-14T01:33:53;6.90;;;2.40;;
68976;SDS011;56029;52.568;13.588;2022-09-14T01:36:27;5.15;;;2.35;;
68976;SDS011;56029;52.568;13.588;2022-09-14T01:38:55;5.50;;;2.20;;
68976;SDS011;56029;52.568;13.588;2022-09-14T01:41:22;8.75;;;2.30;;
68976;SDS011;56029;52.568;13.588;2022-09-14T01:43:51;8.32;;;2.20;;
68976;SDS011;56029;52.568;13.588;2022-09-14T01:46:25;8.20;;;2.40;;
68976;SDS011;56029;52.568;13.588;2022-09-14T01:49:07;7.97;;;2.20;;
68976;SDS011;56029;52.568;13.588;2022-09-14T01:51:43;6.68;;;2.50;;
68976;SDS011;56029;52.568;13.588;2022-09-14T01:54:22;7.25;;;2.30;;
68976;SDS011;56029;52.568;13.588;2022-09-14T01:56:58;5.82;;;2.20;;
68976;SDS011;56029;52.568;13.588;2022-09-14T01:59:30;6.25;;;2.22;;
68976;SDS011;56029;52.568;13.588;2022-09-14T02:02:01;11.37;;;2.43;;
68976;SDS011;56029;52.568;13.588;2022-09-14T02:04:44;7.28;;;2.10;;
68976;SDS011;56029;52.568;13.588;2022-09-14T02:07:21;7.57;;;2.38;;
68976;SDS011;56029;52.568;13.588;2022-09-14T02:09:48;8.98;;;2.25;;
68976;SDS011;56029;52.568;13.588;2022-09-14T02:12:15;6.25;;;2.65;;
68976;SDS011;56029;52.568;13.588;2022-09-14T02:14:42;5.50;;;2.20;;
68976;SDS011;56029;52.568;13.588;2022-09-14T02:17:09;5.22;;;2.30;;
68976;SDS011;56029;52.568;13.588;2022-09-14T02:19:36;9.27;;;2.60;;
68976;SDS011;56029;52.568;13.588;2022-09-14T02:22:14;8.30;;;2.40;;
68976;SDS011;56029;52.568;13.588;2022-09-14T02:24:40;7.63;;;2.50;;
68976;SDS011;56029;52.568;13.588;2022-09-14T02:27:06;8.85;;;2.40;;
68976;SDS011;56029;52.568;13.588;2022-09-14T02:29:32;7.87;;;2.60;;
68976;SDS011;56029;52.568;13.588;2022-09-14T02:32:09;5.60;;;2.50;;
68976;SDS011;56029;52.568;13.588;2022-09-14T02:40:33;7.05;;;2.40;;
68976;SDS011;56029;52.568;13.588;2022-09-14T02:43:08;8.07;;;2.63;;
68976;SDS011;56029;52.568;13.588;2022-09-14T02:45:58;8.07;;;2.30;;
68976;SDS011;56029;52.568;13.588;2022-09-14T02:48:47;9.20;;;2.80;;
68976;SDS011;56029;52.568;13.588;2022-09-14T02:54:34;6.63;;;2.17;;
68976;SDS011;56029;52.568;13.588;2022-09-14T02:57:04;8.10;;;2.77;;
68976;SDS011;56029;52.568;13.588;2022-09-14T02:59:29;11.35;;;2.80;;
68976;SDS011;56029;52.568;13.588;2022-09-14T03:01:55;6.57;;;2.43;;
68976;SDS011;56029;52.568;13.588;2022-09-14T03:04:25;7.60;;;2.58;;
68976;SDS011;56029;52.568;13.588;2022-09-14T03:06:51;9.43;;;2.83;;
68976;SDS011;56029;52.568;13.588;2022-09-14T03:09:16;9.57;;;2.80;;
68976;SDS011;56029;52.568;13.588;2022-09-14T03:11:42;11.75;;;2.90;;
68976;SDS011;56029;52.568;13.588;2022-09-14T03:14:09;10.07;;;2.80;;
68976;SDS011;56029;52.568;13.588;2022-09-14T03:16:35;7.72;;;2.90;;
68976;SDS011;56029;52.568;13.588;2022-09-14T03:19:02;8.77;;;2.63;;
68976;SDS011;56029;52.568;13.588;2022-09-14T03:21:30;7.13;;;2.53;;
68976;SDS011;56029;52.568;13.588;2022-09-14T03:23:56;8.68;;;2.63;;
68976;SDS011;56029;52.568;13.588;2022-09-14T03:26:22;11.60;;;2.60;;
68976;SDS011;56029;52.568;13.588;2022-09-14T03:28:52;8.07;;;2.60;;
68976;SDS011;56029;52.568;13.588;2022-09-14T03:31:23;7.97;;;2.60;;
68976;SDS011;56029;52.568;13.588;2022-09-14T03:33:56;7.60;;;2.53;;
68976;SDS011;56029;52.568;13.588;2022-09-14T03:36:24;7.60;;;2.67;;
68976;SDS011;56029;52.568;13.588;2022-09-14T03:38:52;8.77;;;2.70;;
68976;SDS011;56029;52.568;13.588;2022-09-14T03:41:20;8.75;;;2.50;;
68976;SDS011;56029;52.568;13.588;2022-09-14T03:43:46;8.40;;;2.80;;
68976;SDS011;56029;52.568;13.588;2022-09-14T03:46:13;8.80;;;2.30;;
68976;SDS011;56029;52.568;13.588;2022-09-14T03:48:40;6.90;;;2.60;;
68976;SDS011;56029;52.568;13.588;2022-09-14T03:51:07;6.18;;;2.63;;
68976;SDS011;56029;52.568;13.588;2022-09-14T03:53:34;6.05;;;2.40;;
68976;SDS011;56029;52.568;13.588;2022-09-14T03:56:00;6.37;;;2.50;;
68976;SDS011;56029;52.568;13.588;2022-09-14T03:58:25;8.68;;;2.70;;
68976;SDS011;56029;52.568;13.588;2022-09-14T04:00:55;9.07;;;2.70;;
68976;SDS011;56029;52.568;13.588;2022-09-14T04:03:21;7.60;;;2.57;;
68976;SDS011;56029;52.568;13.588;2022-09-14T04:05:54;7.85;;;2.78;;
68976;SDS011;56029;52.568;13.588;2022-09-14T04:08:20;7.82;;;2.50;;
68976;SDS011;56029;52.568;13.588;2022-09-14T04:10:46;7.45;;;2.72;;
68976;SDS011;56029;52.568;13.588;2022-09-14T04:13:12;6.47;;;2.70;;
68976;SDS011;56029;52.568;13.588;2022-09-14T04:15:38;7.95;;;2.63;;
68976;SDS011;56029;52.568;13.588;2022-09-14T04:18:03;8.93;;;2.70;;
68976;SDS011;56029;52.568;13.588;2022-09-14T04:20:28;8.77;;;2.70;;
68976;SDS011;56029;52.568;13.588;2022-09-14T04:22:54;10.57;;;3.03;;
68976;SDS011;56029;52.568;13.588;2022-09-14T04:25:20;7.77;;;2.87;;
68976;SDS011;56029;52.568;13.588;2022-09-14T04:27:47;10.65;;;3.03;;
68976;SDS011;56029;52.568;13.588;2022-09-14T04:30:14;7.90;;;2.97;;
68976;SDS011;56029;52.568;13.588;2022-09-14T04:32:39;7.87;;;2.93;;
68976;SDS011;56029;52.568;13.588;2022-09-14T04:35:05;9.17;;;3.10;;
68976;SDS011;56029;52.568;13.588;2022-09-14T04:37:31;8.75;;;3.10;;
68976;SDS011;56029;52.568;13.588;2022-09-14T04:39:57;8.07;;;3.10;;
68976;SDS011;56029;52.568;13.588;2022-09-14T04:42:22;8.23;;;3.20;;
68976;SDS011;56029;52.568;13.588;2022-09-14T04:44:48;11.38;;;3.40;;
68976;SDS011;56029;52.568;13.588;2022-09-14T04:47:14;9.33;;;3.37;;
68976;SDS011;56029;52.568;13.588;2022-09-14T04:49:40;11.38;;;3.40;;
68976;SDS011;56029;52.568;13.588;2022-09-14T04:52:05;10.60;;;3.30;;
68976;SDS011;56029;52.568;13.588;2022-09-14T04:54:31;12.02;;;3.38;;
68976;SDS011;56029;52.568;13.588;2022-09-14T04:56:56;11.53;;;3.20;;
68976;SDS011;56029;52.568;13.588;2022-09-14T04:59:22;11.95;;;3.70;;
68976;SDS011;56029;52.568;13.588;2022-09-14T05:01:48;9.20;;;3.50;;
68976;SDS011;56029;52.568;13.588;2022-09-14T05:04:14;8.80;;;3.13;;
68976;SDS011;56029;52.568;13.588;2022-09-14T05:06:41;9.57;;;3.60;;
68976;SDS011;56029;52.568;13.588;2022-09-14T05:09:12;9.33;;;3.33;;
68976;SDS011;56029;52.568;13.588;2022-09-14T05:11:40;10.50;;;3.53;;
68976;SDS011;56029;52.568;13.588;2022-09-14T05:14:06;9.98;;;3.22;;
68976;SDS011;56029;52.568;13.588;2022-09-14T05:16:34;7.35;;;2.90;;
68976;SDS011;56029;52.568;13.588;2022-09-14T05:19:02;11.85;;;3.50;;
68976;SDS011;56029;52.568;13.588;2022-09-14T05:21:30;9.33;;;3.63;;
68976;SDS011;56029;52.568;13.588;2022-09-14T05:23:58;13.13;;;3.88;;
68976;SDS011;56029;52.568;13.588;2022-09-14T05:26:26;10.60;;;3.45;;
68976;SDS011;56029;52.568;13.588;2022-09-14T05:28:54;8.65;;;3.42;;
68976;SDS011;56029;52.568;13.588;2022-09-14T05:31:21;10.90;;;3.60;;
68976;SDS011;56029;52.568;13.588;2022-09-14T05:33:48;9.13;;;3.53;;
68976;SDS011;56029;52.568;13.588;2022-09-14T05:36:14;9.25;;;3.35;;
68976;SDS011;56029;52.568;13.588;2022-09-14T05:38:40;10.90;;;3.80;;
68976;SDS011;56029;52.568;13.588;2022-09-14T05:41:06;8.47;;;3.33;;
68976;SDS011;56029;52.568;13.588;2022-09-14T05:43:33;9.52;;;3.50;;
68976;SDS011;56029;52.568;13.588;2022-09-14T05:46:02;8.17;;;3.20;;
68976;SDS011;56029;52.568;13.588;2022-09-14T05:48:30;10.50;;;3.17;;
68976;SDS011;56029;52.568;13.588;2022-09-14T05:50:58;7.88;;;3.30;;
68976;SDS011;56029;52.568;13.588;2022-09-14T05:53:24;8.20;;;3.10;;
68976;SDS011;56029;52.568;13.588;2022-09-14T05:55:57;9.98;;;3.10;;
68976;SDS011;56029;52.568;13.588;2022-09-14T05:58:27;7.90;;;3.10;;
68976;SDS011;56029;52.568;13.588;2022-09-14T06:00:52;7.53;;;3.07;;
68976;SDS011;56029;52.568;13.588;2022-09-14T06:03:18;8.57;;;2.93;;
68976;SDS011;56029;52.568;13.588;2022-09-14T06:05:44;9.32;;;3.22;;
68976;SDS011;56029;52.568;13.588;2022-09-14T06:08:09;8.37;;;3.13;;
68976;SDS011;56029;52.568;13.588;2022-09-14T06:10:35;9.67;;;2.90;;
68976;SDS011;56029;52.568;13.588;2022-09-14T06:13:00;9.73;;;3.47;;
68976;SDS011;56029;52.568;13.588;2022-09-14T06:15:26;7.33;;;2.80;;
68976;SDS011;56029;52.568;13.588;2022-09-14T06:17:51;7.90;;;3.30;;
68976;SDS011;56029;52.568;13.588;2022-09-14T06:20:17;9.50;;;3.30;;
68976;SDS011;56029;52.568;13.588;2022-09-14T06:22:43;7.82;;;3.08;;
68976;SDS011;56029;52.568;13.588;2022-09-14T06:25:08;7.87;;;3.10;;
68976;SDS011;56029;52.568;13.588;2022-09-14T06:27:36;6.50;;;3.03;;
68976;SDS011;56029;52.568;13.588;2022-09-14T06:30:02;7.60;;;2.97;;
68976;SDS011;56029;52.568;13.588;2022-09-14T06:32:29;11.38;;;3.40;;
68976;SDS011;56029;52.568;13.588;2022-09-14T06:34:55;9.13;;;3.08;;
68976;SDS011;56029;52.568;13.588;2022-09-14T06:37:21;8.77;;;2.90;;
68976;SDS011;56029;52.568;13.588;2022-09-14T06:39:46;7.57;;;2.90;;
68976;SDS011;56029;52.568;13.588;2022-09-14T06:42:12;9.57;;;3.50;;
68976;SDS011;56029;52.568;13.588;2022-09-14T06:44:38;8.30;;;3.00;;
68976;SDS011;56029;52.568;13.588;2022-09-14T06:47:04;9.30;;;3.35;;
68976;SDS011;56029;52.568;13.588;2022-09-14T06:49:30;6.80;;;3.00;;
68976;SDS011;56029;52.568;13.588;2022-09-14T06:51:56;5.93;;;2.70;;
68976;SDS011;56029;52.568;13.588;2022-09-14T06:54:22;9.60;;;3.00;;
68976;SDS011;56029;52.568;13.588;2022-09-14T06:56:48;7.70;;;2.93;;
68976;SDS011;56029;52.568;13.588;2022-09-14T06:59:14;11.30;;;2.75;;
68976;SDS011;56029;52.568;13.588;2022-09-14T07:01:41;8.55;;;2.50;;
68976;SDS011;56029;52.568;13.588;2022-09-14T07:04:10;8.70;;;2.63;;
68976;SDS011;56029;52.568;13.588;2022-09-14T07:06:40;8.27;;;3.20;;
68976;SDS011;56029;52.568;13.588;2022-09-14T07:09:10;6.60;;;2.45;;
68976;SDS011;56029;52.568;13.588;2022-09-14T07:11:37;6.05;;;2.40;;
68976;SDS011;56029;52.568;13.588;2022-09-14T07:14:03;7.47;;;2.35;;
68976;SDS011;56029;52.568;13.588;2022-09-14T07:16:29;6.80;;;2.47;;
68976;SDS011;56029;52.568;13.588;2022-09-14T07:19:06;10.48;;;2.60;;
68976;SDS011;56029;52.568;13.588;2022-09-14T07:21:34;10.68;;;2.40;;
68976;SDS011;56029;52.568;13.588;2022-09-14T07:24:00;8.83;;;2.30;;
68976;SDS011;56029;52.568;13.588;2022-09-14T07:26:27;7.90;;;2.72;;
68976;SDS011;56029;52.568;13.588;2022-09-14T07:29:03;7.43;;;2.45;;
68976;SDS011;56029;52.568;13.588;2022-09-14T07:31:33;8.20;;;2.47;;
68976;SDS011;56029;52.568;13.588;2022-09-14T07:34:01;7.85;;;2.50;;
68976;SDS011;56029;52.568;13.588;2022-09-14T07:36:29;6.50;;;2.10;;
68976;SDS011;56029;52.568;13.588;2022-09-14T07:38:56;8.60;;;2.40;;
68976;SDS011;56029;52.568;13.588;2022-09-14T07:41:23;6.60;;;2.28;;
68976;SDS011;56029;52.568;13.588;2022-09-14T07:43:51;9.97;;;2.37;;
68976;SDS011;56029;52.568;13.588;2022-09-14T07:46:19;7.90;;;2.38;;
68976;SDS011;56029;52.568;13.588;2022-09-14T07:48:45;9.52;;;2.30;;
68976;SDS011;56029;52.568;13.588;2022-09-14T07:51:11;6.70;;;1.98;;
68976;SDS011;56029;52.568;13.588;2022-09-14T07:53:38;7.05;;;2.15;;
68976;SDS011;56029;52.568;13.588;2022-09-14T07:56:07;8.73;;;2.03;;
68976;SDS011;56029;52.568;13.588;2022-09-14T07:58:33;6.28;;;1.90;;
68976;SDS011;56029;52.568;13.588;2022-09-14T08:01:01;9.43;;;2.17;;
68976;SDS011;56029;52.568;13.588;2022-09-14T08:03:28;6.07;;;1.67;;
68976;SDS011;56029;52.568;13.588;2022-09-14T08:06:02;8.13;;;2.05;;
68976;SDS011;56029;52.568;13.588;2022-09-14T08:08:31;8.07;;;1.90;;
68976;SDS011;56029;52.568;13.588;2022-09-14T08:11:03;7.50;;;1.83;;
68976;SDS011;56029;52.568;13.588;2022-09-14T08:13:32;9.55;;;1.95;;
68976;SDS011;56029;52.568;13.588;2022-09-14T08:16:02;5.95;;;1.70;;
68976;SDS011;56029;52.568;13.588;2022-09-14T08:18:28;6.03;;;1.85;;
68976;SDS011;56029;52.568;13.588;2022-09-14T08:20:55;6.97;;;1.67;;
68976;SDS011;56029;52.568;13.588;2022-09-14T08:23:21;9.43;;;2.00;;
68976;SDS011;56029;52.568;13.588;2022-09-14T08:25:46;10.10;;;2.45;;
68976;SDS011;56029;52.568;13.588;2022-09-14T08:28:12;7.93;;;1.70;;
68976;SDS011;56029;52.568;13.588;2022-09-14T08:30:37;7.68;;;2.03;;
68976;SDS011;56029;52.568;13.588;2022-09-14T08:33:03;7.30;;;2.00;;
68976;SDS011;56029;52.568;13.588;2022-09-14T08:35:29;7.70;;;2.20;;
68976;SDS011;56029;52.568;13.588;2022-09-14T08:37:54;12.07;;;2.00;;
68976;SDS011;56029;52.568;13.588;2022-09-14T08:40:20;9.23;;;1.80;;
68976;SDS011;56029;52.568;13.588;2022-09-14T08:42:46;7.63;;;1.83;;
68976;SDS011;56029;52.568;13.588;2022-09-14T08:45:12;7.20;;;2.05;;
68976;SDS011;56029;52.568;13.588;2022-09-14T08:47:41;8.80;;;1.80;;
68976;SDS011;56029;52.568;13.588;2022-09-14T08:50:15;6.45;;;1.60;;
68976;SDS011;56029;52.568;13.588;2022-09-14T08:52:43;6.00;;;1.80;;
68976;SDS011;56029;52.568;13.588;2022-09-14T08:55:29;7.72;;;2.08;;
68976;SDS011;56029;52.568;13.588;2022-09-14T08:58:11;6.82;;;1.70;;
68976;SDS011;56029;52.568;13.588;2022-09-14T09:00:48;10.57;;;2.00;;
68976;SDS011;56029;52.568;13.588;2022-09-14T09:03:38;8.80;;;2.00;;
68976;SDS011;56029;52.568;13.588;2022-09-14T09:11:30;7.10;;;1.60;;
68976;SDS011;56029;52.568;13.588;2022-09-14T09:14:05;5.67;;;1.60;;
68976;SDS011;56029;52.568;13.588;2022-09-14T09:16:39;5.85;;;1.60;;
68976;SDS011;56029;52.568;13.588;2022-09-14T09:19:05;6.47;;;1.67;;
68976;SDS011;56029;52.568;13.588;2022-09-14T09:21:38;8.80;;;1.90;;
68976;SDS011;56029;52.568;13.588;2022-09-14T09:26:54;6.32;;;1.60;;
68976;SDS011;56029;52.568;13.588;2022-09-14T09:29:19;7.80;;;1.63;;
68976;SDS011;56029;52.568;13.588;2022-09-14T09:31:48;5.30;;;1.60;;
68976;SDS011;56029;52.568;13.588;2022-09-14T09:34:16;9.40;;;1.92;;
68976;SDS011;56029;52.568;13.588;2022-09-14T09:36:50;5.72;;;1.90;;
68976;SDS011;56029;52.568;13.588;2022-09-14T09:39:15;7.20;;;1.67;;
68976;SDS011;56029;52.568;13.588;2022-09-14T09:41:46;9.52;;;2.10;;
68976;SDS011;56029;52.568;13.588;2022-09-14T09:44:15;6.57;;;1.60;;
68976;SDS011;56029;52.568;13.588;2022-09-14T09:46:47;5.87;;;1.60;;
68976;SDS011;56029;52.568;13.588;2022-09-14T09:49:17;5.03;;;1.58;;
68976;SDS011;56029;52.568;13.588;2022-09-14T09:51:45;6.20;;;1.50;;
68976;SDS011;56029;52.568;13.588;2022-09-14T09:56:40;4.93;;;1.47;;
68976;SDS011;56029;52.568;13.588;2022-09-14T09:59:36;5.85;;;1.50;;
68976;SDS011;56029;52.568;13.588;2022-09-14T10:10:23;6.35;;;1.70;;
68976;SDS011;56029;52.568;13.588;2022-09-14T10:13:04;7.15;;;1.90;;
68976;SDS011;56029;52.568;13.588;2022-09-14T10:15:38;5.80;;;1.40;;
68976;SDS011;56029;52.568;13.588;2022-09-14T10:20:42;5.53;;;1.67;;
68976;SDS011;56029;52.568;13.588;2022-09-14T10:25:46;5.40;;;1.57;;
68976;SDS011;56029;52.568;13.588;2022-09-14T10:28:26;4.50;;;1.50;;
68976;SDS011;56029;52.568;13.588;2022-09-14T10:31:00;7.78;;;1.60;;
68976;SDS011;56029;52.568;13.588;2022-09-14T10:33:42;5.25;;;1.63;;
68976;SDS011;56029;52.568;13.588;2022-09-14T10:36:17;6.77;;;1.50;;
68976;SDS011;56029;52.568;13.588;2022-09-14T10:39:21;10.20;;;1.70;;
68976;SDS011;56029;52.568;13.588;2022-09-14T10:47:37;4.82;;;1.67;;
68976;SDS011;56029;52.568;13.588;2022-09-14T10:53:19;5.60;;;1.98;;
68976;SDS011;56029;52.568;13.588;2022-09-14T10:56:38;4.85;;;1.60;;
68976;SDS011;56029;52.568;13.588;2022-09-14T11:02:00;7.18;;;1.70;;
68976;SDS011;56029;52.568;13.588;2022-09-14T11:04:54;4.87;;;1.40;;
68976;SDS011;56029;52.568;13.588;2022-09-14T11:07:55;5.22;;;1.60;;
68976;SDS011;56029;52.568;13.588;2022-09-14T11:13:13;6.85;;;1.80;;
68976;SDS011;56029;52.568;13.588;2022-09-14T11:19:25;5.00;;;1.73;;
68976;SDS011;56029;52.568;13.588;2022-09-14T11:22:08;6.63;;;1.77;;
68976;SDS011;56029;52.568;13.588;2022-09-14T11:24:44;6.15;;;1.60;;
68976;SDS011;56029;52.568;13.588;2022-09-14T11:27:22;6.28;;;1.70;;
68976;SDS011;56029;52.568;13.588;2022-09-14T11:29:52;5.57;;;1.50;;
68976;SDS011;56029;52.568;13.588;2022-09-14T11:32:37;7.13;;;1.97;;
68976;SDS011;56029;52.568;13.588;2022-09-14T11:37:42;5.85;;;1.52;;
68976;SDS011;56029;52.568;13.588;2022-09-14T11:40:17;7.45;;;1.90;;
68976;SDS011;56029;52.568;13.588;2022-09-14T11:45:22;6.93;;;1.53;;
68976;SDS011;56029;52.568;13.588;2022-09-14T11:47:58;4.80;;;1.70;;
68976;SDS011;56029;52.568;13.588;2022-09-14T11:50:30;5.38;;;1.70;;
68976;SDS011;56029;52.568;13.588;2022-09-14T11:53:09;3.30;;;1.65;;
68976;SDS011;56029;52.568;13.588;2022-09-14T11:55:36;7.05;;;1.55;;
68976;SDS011;56029;52.568;13.588;2022-09-14T11:58:06;4.93;;;1.40;;
68976;SDS011;56029;52.568;13.588;2022-09-14T12:00:43;7.80;;;2.28;;
68976;SDS011;56029;52.568;13.588;2022-09-14T12:03:23;4.45;;;1.50;;
68976;SDS011;56029;52.568;13.588;2022-09-14T12:11:38;3.93;;;1.30;;
68976;SDS011;56029;52.568;13.588;2022-09-14T12:14:11;4.55;;;1.63;;
68976;SDS011;56029;52.568;13.588;2022-09-14T12:19:28;5.05;;;1.65;;
68976;SDS011;56029;52.568;13.588;2022-09-14T12:21:54;5.38;;;1.63;;
68976;SDS011;56029;52.568;13.588;2022-09-14T12:24:20;5.40;;;1.47;;
68976;SDS011;56029;52.568;13.588;2022-09-14T12:26:47;6.10;;;1.60;;
68976;SDS011;56029;52.568;13.588;2022-09-14T12:34:20;6.67;;;1.70;;
68976;SDS011;56029;52.568;13.588;2022-09-14T12:39:19;7.00;;;1.80;;
68976;SDS011;56029;52.568;13.588;2022-09-14T12:49:56;6.20;;;1.60;;
68976;SDS011;56029;52.568;13.588;2022-09-14T13:06:56;8.55;;;1.92;;
68976;SDS011;56029;52.568;13.588;2022-09-14T13:09:24;5.65;;;1.70;;
68976;SDS011;56029;52.568;13.588;2022-09-14T13:11:56;4.63;;;1.52;;
68976;SDS011;56029;52.568;13.588;2022-09-14T13:14:29;4.60;;;1.67;;
68976;SDS011;56029;52.568;13.588;2022-09-14T13:16:58;6.57;;;1.83;;
68976;SDS011;56029;52.568;13.588;2022-09-14T13:19:26;4.57;;;1.50;;
68976;SDS011;56029;52.568;13.588;2022-09-14T13:21:54;5.53;;;1.70;;
68976;SDS011;56029;52.568;13.588;2022-09-14T13:24:26;6.20;;;1.80;;
68976;SDS011;56029;52.568;13.588;2022-09-14T13:26:56;5.50;;;1.70;;
68976;SDS011;56029;52.568;13.588;2022-09-14T13:29:24;5.43;;;1.43;;
68976;SDS011;56029;52.568;13.588;2022-09-14T13:31:51;5.00;;;1.55;;
68976;SDS011;56029;52.568;13.588;2022-09-14T13:34:33;5.78;;;1.48;;
68976;SDS011;56029;52.568;13.588;2022-09-14T13:37:01;5.18;;;1.45;;
68976;SDS011;56029;52.568;13.588;2022-09-14T13:39:31;4.93;;;1.60;;
68976;SDS011;56029;52.568;13.588;2022-09-14T13:41:59;5.27;;;1.47;;
68976;SDS011;56029;52.568;13.588;2022-09-14T13:44:35;4.85;;;1.88;;
68976;SDS011;56029;52.568;13.588;2022-09-14T13:47:13;5.45;;;1.80;;
68976;SDS011;56029;52.568;13.588;2022-09-14T13:49:41;4.95;;;1.70;;
68976;SDS011;56029;52.568;13.588;2022-09-14T13:54:46;5.87;;;1.60;;
68976;SDS011;56029;52.568;13.588;2022-09-14T13:57:17;6.28;;;1.70;;
68976;SDS011;56029;52.568;13.588;2022-09-14T14:02:33;6.55;;;1.90;;
68976;SDS011;56029;52.568;13.588;2022-09-14T14:05:00;4.57;;;1.70;;
68976;SDS011;56029;52.568;13.588;2022-09-14T14:07:29;5.80;;;1.63;;
68976;SDS011;56029;52.568;13.588;2022-09-14T14:09:57;4.85;;;1.77;;
68976;SDS011;56029;52.568;13.588;2022-09-14T14:12:27;6.32;;;1.77;;
68976;SDS011;56029;52.568;13.588;2022-09-14T14:14:57;5.05;;;1.65;;
68976;SDS011;56029;52.568;13.588;2022-09-14T14:19:55;5.50;;;1.80;;
68976;SDS011;56029;52.568;13.588;2022-09-14T14:22:26;4.65;;;1.77;;
68976;SDS011;56029;52.568;13.588;2022-09-14T14:24:57;7.33;;;1.83;;
68976;SDS011;56029;52.568;13.588;2022-09-14T14:29:58;3.75;;;1.58;;
68976;SDS011;56029;52.568;13.588;2022-09-14T14:32:25;5.15;;;1.70;;
68976;SDS011;56029;52.568;13.588;2022-09-14T14:34:52;5.60;;;1.67;;
68976;SDS011;56029;52.568;13.588;2022-09-14T14:37:18;4.80;;;1.90;;
68976;SDS011;56029;52.568;13.588;2022-09-14T14:39:45;5.13;;;1.77;;
68976;SDS011;56029;52.568;13.588;2022-09-14T14:42:12;5.32;;;1.83;;
68976;SDS011;56029;52.568;13.588;2022-09-14T14:44:39;5.05;;;1.83;;
68976;SDS011;56029;52.568;13.588;2022-09-14T14:47:05;6.32;;;1.58;;
68976;SDS011;56029;52.568;13.588;2022-09-14T14:49:31;5.43;;;1.70;;
68976;SDS011;56029;52.568;13.588;2022-09-14T14:51:58;7.35;;;1.98;;
68976;SDS011;56029;52.568;13.588;2022-09-14T14:54:23;7.47;;;1.70;;
68976;SDS011;56029;52.568;13.588;2022-09-14T14:56:49;5.73;;;1.60;;
68976;SDS011;56029;52.568;13.588;2022-09-14T15:01:45;5.60;;;1.70;;
68976;SDS011;56029;52.568;13.588;2022-09-14T15:04:11;5.97;;;1.55;;
68976;SDS011;56029;52.568;13.588;2022-09-14T15:06:36;4.27;;;1.80;;
68976;SDS011;56029;52.568;13.588;2022-09-14T15:09:04;6.43;;;1.63;;
68976;SDS011;56029;52.568;13.588;2022-09-14T15:11:37;5.20;;;1.60;;
68976;SDS011;56029;52.568;13.588;2022-09-14T15:14:04;3.10;;;1.48;;
68976;SDS011;56029;52.568;13.588;2022-09-14T15:16:33;5.17;;;1.50;;
68976;SDS011;56029;52.568;13.588;2022-09-14T15:18:58;5.90;;;1.52;;
68976;SDS011;56029;52.568;13.588;2022-09-14T15:21:24;5.10;;;1.90;;
68976;SDS011;56029;52.568;13.588;2022-09-14T15:23:50;4.10;;;1.65;;
68976;SDS011;56029;52.568;13.588;2022-09-14T15:26:15;4.87;;;1.67;;
68976;SDS011;56029;52.568;13.588;2022-09-14T15:28:41;5.75;;;1.55;;
68976;SDS011;56029;52.568;13.588;2022-09-14T15:31:07;5.23;;;1.70;;
68976;SDS011;56029;52.568;13.588;2022-09-14T15:33:32;5.27;;;1.60;;
68976;SDS011;56029;52.568;13.588;2022-09-14T15:35:58;4.22;;;1.60;;
68976;SDS011;56029;52.568;13.588;2022-09-14T15:38:23;6.10;;;1.80;;
68976;SDS011;56029;52.568;13.588;2022-09-14T15:40:49;5.32;;;1.65;;
68976;SDS011;56029;52.568;13.588;2022-09-14T15:43:15;5.75;;;1.90;;
68976;SDS011;56029;52.568;13.588;2022-09-14T15:45:41;7.43;;;1.80;;
68976;SDS011;56029;52.568;13.588;2022-09-14T15:48:10;6.37;;;1.97;;
68976;SDS011;56029;52.568;13.588;2022-09-14T15:50:42;5.00;;;1.77;;
68976;SDS011;56029;52.568;13.588;2022-09-14T15:53:12;5.70;;;1.90;;
68976;SDS011;56029;52.568;13.588;2022-09-14T15:55:40;6.05;;;1.70;;
68976;SDS011;56029;52.568;13.588;2022-09-14T15:58:07;5.97;;;1.90;;
68976;SDS011;56029;52.568;13.588;2022-09-14T16:00:33;6.30;;;1.52;;
68976;SDS011;56029;52.568;13.588;2022-09-14T16:02:59;7.07;;;1.90;;
68976;SDS011;56029;52.568;13.588;2022-09-14T16:05:25;5.73;;;1.70;;
68976;SDS011;56029;52.568;13.588;2022-09-14T16:07:53;5.27;;;1.97;;
68976;SDS011;56029;52.568;13.588;2022-09-14T16:10:20;6.57;;;2.22;;
68976;SDS011;56029;52.568;13.588;2022-09-14T16:12:47;6.10;;;1.90;;
68976;SDS011;56029;52.568;13.588;2022-09-14T16:15:12;5.23;;;1.83;;
68976;SDS011;56029;52.568;13.588;2022-09-14T16:17:38;6.57;;;1.98;;
68976;SDS011;56029;52.568;13.588;2022-09-14T16:20:03;5.03;;;1.73;;
68976;SDS011;56029;52.568;13.588;2022-09-14T16:22:30;7.68;;;1.80;;
68976;SDS011;56029;52.568;13.588;2022-09-14T16:24:56;7.33;;;1.90;;
68976;SDS011;56029;52.568;13.588;2022-09-14T16:27:22;5.22;;;1.88;;
68976;SDS011;56029;52.568;13.588;2022-09-14T16:29:48;4.97;;;1.73;;
68976;SDS011;56029;52.568;13.588;2022-09-14T16:32:14;6.53;;;1.97;;
68976;SDS011;56029;52.568;13.588;2022-09-14T16:34:39;4.97;;;1.83;;
68976;SDS011;56029;52.568;13.588;2022-09-14T16:37:05;4.95;;;1.88;;
68976;SDS011;56029;52.568;13.588;2022-09-14T16:39:30;5.73;;;1.70;;
68976;SDS011;56029;52.568;13.588;2022-09-14T16:41:59;6.82;;;2.00;;
68976;SDS011;56029;52.568;13.588;2022-09-14T16:44:25;6.43;;;2.10;;
68976;SDS011;56029;52.568;13.588;2022-09-14T16:46:53;5.40;;;1.90;;